sensor_id;sensor_type;location;lat;lon;timestamp;P1;durP1;ratioP1;P2;durP2;ratioP2
36855;SDS011;22788;51.434;6.786;2024-03-08T00:01:00;16.70;;;11.50;;
36855;SDS011;22788;51.434;6.786;2024-03-08T00:03:26;18.90;;;11.30;;
36855;SDS011;22788;51.434;6.786;2024-03-08T00:05:52;15.30;;;11.40;;
36855;SDS011;22788;51.434;6.786;2024-03-08T00:08:19;16.57;;;11.23;;
36855;SDS011;22788;51.434;6.786;2024-03-08T00:10:44;19.47;;;12.00;;
36855;SDS011;22788;51.434;6.786;2024-03-08T00:13:10;17.10;;;10.63;;
36855;SDS011;22788;51.434;6.786;2024-03-08T00:15:35;19.40;;;11.33;;
36855;SDS011;22788;51.434;6.786;2024-03-08T00:18:01;17.60;;;11.53;;
36855;SDS011;22788;51.434;6.786;2024-03-08T00:20:26;15.50;;;11.77;;
36855;SDS011;22788;51.434;6.786;2024-03-08T00:22:52;16.33;;;10.67;;
36855;SDS011;22788;51.434;6.786;2024-03-08T00:25:19;16.50;;;10.93;;
36855;SDS011;22788;51.434;6.786;2024-03-08T00:27:45;17.20;;;11.23;;
36855;SDS011;22788;51.434;6.786;2024-03-08T00:30:10;17.67;;;11.57;;
36855;SDS011;22788;51.434;6.786;2024-03-08T00:32:36;17.33;;;10.80;;
36855;SDS011;22788;51.434;6.786;2024-03-08T00:35:02;17.30;;;10.70;;
36855;SDS011;22788;51.434;6.786;2024-03-08T00:37:28;15.87;;;11.67;;
36855;SDS011;22788;51.434;6.786;2024-03-08T00:39:53;15.87;;;11.30;;
36855;SDS011;22788;51.434;6.786;2024-03-08T00:42:20;16.03;;;11.07;;
36855;SDS011;22788;51.434;6.786;2024-03-08T00:44:46;17.27;;;11.57;;
36855;SDS011;22788;51.434;6.786;2024-03-08T00:47:12;17.13;;;12.23;;
36855;SDS011;22788;51.434;6.786;2024-03-08T00:49:37;15.03;;;10.80;;
36855;SDS011;22788;51.434;6.786;2024-03-08T00:52:03;15.90;;;11.23;;
36855;SDS011;22788;51.434;6.786;2024-03-08T00:54:29;14.60;;;11.00;;
36855;SDS011;22788;51.434;6.786;2024-03-08T00:56:54;15.50;;;11.33;;
36855;SDS011;22788;51.434;6.786;2024-03-08T00:59:21;15.63;;;10.57;;
36855;SDS011;22788;51.434;6.786;2024-03-08T01:01:47;15.40;;;10.90;;
36855;SDS011;22788;51.434;6.786;2024-03-08T01:04:12;16.43;;;10.80;;
36855;SDS011;22788;51.434;6.786;2024-03-08T01:06:38;17.93;;;12.50;;
36855;SDS011;22788;51.434;6.786;2024-03-08T01:09:04;16.03;;;10.77;;
36855;SDS011;22788;51.434;6.786;2024-03-08T01:11:29;16.63;;;11.43;;
36855;SDS011;22788;51.434;6.786;2024-03-08T01:13:55;17.50;;;11.90;;
36855;SDS011;22788;51.434;6.786;2024-03-08T01:16:22;16.97;;;11.67;;
36855;SDS011;22788;51.434;6.786;2024-03-08T01:18:47;15.17;;;10.97;;
36855;SDS011;22788;51.434;6.786;2024-03-08T01:21:13;17.33;;;12.17;;
36855;SDS011;22788;51.434;6.786;2024-03-08T01:23:38;19.60;;;11.80;;
36855;SDS011;22788;51.434;6.786;2024-03-08T01:26:04;16.37;;;11.30;;
36855;SDS011;22788;51.434;6.786;2024-03-08T01:28:30;15.00;;;10.97;;
36855;SDS011;22788;51.434;6.786;2024-03-08T01:30:55;15.47;;;11.20;;
36855;SDS011;22788;51.434;6.786;2024-03-08T01:33:23;17.50;;;11.47;;
36855;SDS011;22788;51.434;6.786;2024-03-08T01:35:50;15.63;;;10.90;;
36855;SDS011;22788;51.434;6.786;2024-03-08T01:38:15;18.67;;;11.80;;
36855;SDS011;22788;51.434;6.786;2024-03-08T01:40:41;15.40;;;11.47;;
36855;SDS011;22788;51.434;6.786;2024-03-08T01:45:50;16.23;;;11.23;;
36855;SDS011;22788;51.434;6.786;2024-03-08T01:48:16;13.33;;;10.20;;
36855;SDS011;22788;51.434;6.786;2024-03-08T01:50:45;14.67;;;11.20;;
36855;SDS011;22788;51.434;6.786;2024-03-08T01:53:11;16.83;;;11.83;;
36855;SDS011;22788;51.434;6.786;2024-03-08T01:55:37;16.20;;;10.97;;
36855;SDS011;22788;51.434;6.786;2024-03-08T01:58:03;14.97;;;11.23;;
36855;SDS011;22788;51.434;6.786;2024-03-08T02:00:30;19.27;;;11.63;;
36855;SDS011;22788;51.434;6.786;2024-03-08T02:02:57;17.10;;;12.73;;
36855;SDS011;22788;51.434;6.786;2024-03-08T02:05:22;17.00;;;11.77;;
36855;SDS011;22788;51.434;6.786;2024-03-08T02:07:49;16.10;;;11.23;;
36855;SDS011;22788;51.434;6.786;2024-03-08T02:10:15;16.20;;;11.07;;
36855;SDS011;22788;51.434;6.786;2024-03-08T02:12:41;16.60;;;11.83;;
36855;SDS011;22788;51.434;6.786;2024-03-08T02:15:07;17.50;;;11.60;;
36855;SDS011;22788;51.434;6.786;2024-03-08T02:17:33;17.80;;;11.83;;
36855;SDS011;22788;51.434;6.786;2024-03-08T02:19:58;17.37;;;11.63;;
36855;SDS011;22788;51.434;6.786;2024-03-08T02:22:25;16.43;;;11.97;;
36855;SDS011;22788;51.434;6.786;2024-03-08T02:24:51;18.30;;;11.53;;
36855;SDS011;22788;51.434;6.786;2024-03-08T02:27:22;14.30;;;10.70;;
36855;SDS011;22788;51.434;6.786;2024-03-08T02:29:48;20.40;;;12.23;;
36855;SDS011;22788;51.434;6.786;2024-03-08T02:32:15;18.27;;;11.23;;
36855;SDS011;22788;51.434;6.786;2024-03-08T02:34:41;15.73;;;10.97;;
36855;SDS011;22788;51.434;6.786;2024-03-08T02:37:06;14.97;;;11.03;;
36855;SDS011;22788;51.434;6.786;2024-03-08T02:39:33;20.50;;;12.90;;
36855;SDS011;22788;51.434;6.786;2024-03-08T02:41:59;17.90;;;11.00;;
36855;SDS011;22788;51.434;6.786;2024-03-08T02:44:25;15.33;;;11.53;;
36855;SDS011;22788;51.434;6.786;2024-03-08T02:46:50;17.27;;;12.07;;
36855;SDS011;22788;51.434;6.786;2024-03-08T02:49:16;18.93;;;12.33;;
36855;SDS011;22788;51.434;6.786;2024-03-08T02:51:41;17.93;;;12.87;;
36855;SDS011;22788;51.434;6.786;2024-03-08T02:54:07;18.27;;;12.13;;
36855;SDS011;22788;51.434;6.786;2024-03-08T02:56:34;20.00;;;13.30;;
36855;SDS011;22788;51.434;6.786;2024-03-08T02:58:59;17.27;;;11.57;;
36855;SDS011;22788;51.434;6.786;2024-03-08T03:01:25;16.13;;;11.43;;
36855;SDS011;22788;51.434;6.786;2024-03-08T03:03:50;15.00;;;11.27;;
36855;SDS011;22788;51.434;6.786;2024-03-08T03:06:16;15.93;;;12.07;;
36855;SDS011;22788;51.434;6.786;2024-03-08T03:08:41;19.53;;;12.53;;
36855;SDS011;22788;51.434;6.786;2024-03-08T03:11:07;16.40;;;11.47;;
36855;SDS011;22788;51.434;6.786;2024-03-08T03:13:34;16.43;;;11.83;;
36855;SDS011;22788;51.434;6.786;2024-03-08T03:15:59;16.30;;;11.57;;
36855;SDS011;22788;51.434;6.786;2024-03-08T03:18:25;17.70;;;11.67;;
36855;SDS011;22788;51.434;6.786;2024-03-08T03:20:51;17.83;;;11.90;;
36855;SDS011;22788;51.434;6.786;2024-03-08T03:23:16;16.53;;;11.37;;
36855;SDS011;22788;51.434;6.786;2024-03-08T03:25:42;19.03;;;11.57;;
36855;SDS011;22788;51.434;6.786;2024-03-08T03:28:07;21.00;;;11.93;;
36855;SDS011;22788;51.434;6.786;2024-03-08T03:30:34;17.77;;;11.97;;
36855;SDS011;22788;51.434;6.786;2024-03-08T03:33:00;17.30;;;11.63;;
36855;SDS011;22788;51.434;6.786;2024-03-08T03:35:26;17.07;;;11.53;;
36855;SDS011;22788;51.434;6.786;2024-03-08T03:37:52;17.03;;;12.33;;
36855;SDS011;22788;51.434;6.786;2024-03-08T03:40:18;16.33;;;11.40;;
36855;SDS011;22788;51.434;6.786;2024-03-08T03:42:43;21.13;;;13.80;;
36855;SDS011;22788;51.434;6.786;2024-03-08T03:45:09;16.70;;;12.20;;
36855;SDS011;22788;51.434;6.786;2024-03-08T03:47:36;18.40;;;13.03;;
36855;SDS011;22788;51.434;6.786;2024-03-08T03:50:02;16.77;;;11.67;;
36855;SDS011;22788;51.434;6.786;2024-03-08T03:52:28;17.37;;;12.63;;
36855;SDS011;22788;51.434;6.786;2024-03-08T03:54:53;17.40;;;11.87;;
36855;SDS011;22788;51.434;6.786;2024-03-08T03:57:19;18.30;;;12.23;;
36855;SDS011;22788;51.434;6.786;2024-03-08T03:59:44;17.80;;;12.10;;
36855;SDS011;22788;51.434;6.786;2024-03-08T04:02:10;18.83;;;12.63;;
36855;SDS011;22788;51.434;6.786;2024-03-08T04:04:37;19.10;;;12.57;;
36855;SDS011;22788;51.434;6.786;2024-03-08T04:07:02;18.27;;;12.50;;
36855;SDS011;22788;51.434;6.786;2024-03-08T04:09:28;17.83;;;11.93;;
36855;SDS011;22788;51.434;6.786;2024-03-08T04:11:53;16.13;;;12.00;;
36855;SDS011;22788;51.434;6.786;2024-03-08T04:14:19;18.10;;;12.30;;
36855;SDS011;22788;51.434;6.786;2024-03-08T04:16:45;20.50;;;12.40;;
36855;SDS011;22788;51.434;6.786;2024-03-08T04:19:10;17.67;;;12.27;;
36855;SDS011;22788;51.434;6.786;2024-03-08T04:21:37;17.37;;;11.70;;
36855;SDS011;22788;51.434;6.786;2024-03-08T04:24:03;20.00;;;12.00;;
36855;SDS011;22788;51.434;6.786;2024-03-08T04:26:29;18.90;;;12.87;;
36855;SDS011;22788;51.434;6.786;2024-03-08T04:28:55;18.20;;;13.07;;
36855;SDS011;22788;51.434;6.786;2024-03-08T04:31:20;16.83;;;12.27;;
36855;SDS011;22788;51.434;6.786;2024-03-08T04:33:46;18.43;;;13.17;;
36855;SDS011;22788;51.434;6.786;2024-03-08T04:36:11;19.07;;;12.70;;
36855;SDS011;22788;51.434;6.786;2024-03-08T04:38:38;18.30;;;12.33;;
36855;SDS011;22788;51.434;6.786;2024-03-08T04:41:04;18.70;;;12.03;;
36855;SDS011;22788;51.434;6.786;2024-03-08T04:43:30;20.03;;;13.10;;
36855;SDS011;22788;51.434;6.786;2024-03-08T04:45:55;19.17;;;12.60;;
36855;SDS011;22788;51.434;6.786;2024-03-08T04:48:21;18.73;;;12.80;;
36855;SDS011;22788;51.434;6.786;2024-03-08T04:50:46;18.40;;;12.40;;
36855;SDS011;22788;51.434;6.786;2024-03-08T04:53:12;20.87;;;13.57;;
36855;SDS011;22788;51.434;6.786;2024-03-08T04:55:39;21.03;;;12.93;;
36855;SDS011;22788;51.434;6.786;2024-03-08T04:58:04;19.40;;;12.83;;
36855;SDS011;22788;51.434;6.786;2024-03-08T05:00:30;20.00;;;13.50;;
36855;SDS011;22788;51.434;6.786;2024-03-08T05:02:56;19.47;;;12.40;;
36855;SDS011;22788;51.434;6.786;2024-03-08T05:05:21;18.83;;;13.23;;
36855;SDS011;22788;51.434;6.786;2024-03-08T05:07:47;19.17;;;12.23;;
36855;SDS011;22788;51.434;6.786;2024-03-08T05:10:12;21.47;;;13.33;;
36855;SDS011;22788;51.434;6.786;2024-03-08T05:12:40;20.47;;;13.07;;
36855;SDS011;22788;51.434;6.786;2024-03-08T05:15:06;18.50;;;12.63;;
36855;SDS011;22788;51.434;6.786;2024-03-08T05:17:32;20.20;;;12.87;;
36855;SDS011;22788;51.434;6.786;2024-03-08T05:19:57;22.13;;;13.40;;
36855;SDS011;22788;51.434;6.786;2024-03-08T05:22:23;20.27;;;13.10;;
36855;SDS011;22788;51.434;6.786;2024-03-08T05:24:48;19.47;;;13.03;;
36855;SDS011;22788;51.434;6.786;2024-03-08T05:27:14;19.73;;;13.67;;
36855;SDS011;22788;51.434;6.786;2024-03-08T05:29:41;21.53;;;14.40;;
36855;SDS011;22788;51.434;6.786;2024-03-08T05:32:07;18.40;;;12.63;;
36855;SDS011;22788;51.434;6.786;2024-03-08T05:34:32;21.17;;;13.43;;
36855;SDS011;22788;51.434;6.786;2024-03-08T05:36:58;18.93;;;13.20;;
36855;SDS011;22788;51.434;6.786;2024-03-08T05:39:23;20.70;;;13.93;;
36855;SDS011;22788;51.434;6.786;2024-03-08T05:41:49;19.90;;;12.97;;
36855;SDS011;22788;51.434;6.786;2024-03-08T05:44:15;22.10;;;12.57;;
36855;SDS011;22788;51.434;6.786;2024-03-08T05:46:42;22.63;;;13.33;;
36855;SDS011;22788;51.434;6.786;2024-03-08T05:49:08;18.27;;;13.00;;
36855;SDS011;22788;51.434;6.786;2024-03-08T05:51:34;20.47;;;12.83;;
36855;SDS011;22788;51.434;6.786;2024-03-08T05:54:01;19.63;;;14.03;;
36855;SDS011;22788;51.434;6.786;2024-03-08T05:56:26;19.13;;;13.33;;
36855;SDS011;22788;51.434;6.786;2024-03-08T05:58:52;19.60;;;13.87;;
36855;SDS011;22788;51.434;6.786;2024-03-08T06:01:17;22.60;;;14.00;;
36855;SDS011;22788;51.434;6.786;2024-03-08T06:03:44;20.60;;;13.97;;
36855;SDS011;22788;51.434;6.786;2024-03-08T06:06:11;20.73;;;13.37;;
36855;SDS011;22788;51.434;6.786;2024-03-08T06:08:36;23.83;;;13.70;;
36855;SDS011;22788;51.434;6.786;2024-03-08T06:11:02;20.73;;;13.37;;
36855;SDS011;22788;51.434;6.786;2024-03-08T06:13:28;21.60;;;13.07;;
36855;SDS011;22788;51.434;6.786;2024-03-08T06:15:53;21.10;;;14.23;;
36855;SDS011;22788;51.434;6.786;2024-03-08T06:18:19;22.77;;;14.27;;
36855;SDS011;22788;51.434;6.786;2024-03-08T06:20:46;20.63;;;13.77;;
36855;SDS011;22788;51.434;6.786;2024-03-08T06:23:12;19.87;;;14.20;;
36855;SDS011;22788;51.434;6.786;2024-03-08T06:25:37;22.10;;;13.93;;
36855;SDS011;22788;51.434;6.786;2024-03-08T06:28:03;18.80;;;13.20;;
36855;SDS011;22788;51.434;6.786;2024-03-08T06:30:29;20.70;;;13.87;;
36855;SDS011;22788;51.434;6.786;2024-03-08T06:32:55;20.37;;;13.47;;
36855;SDS011;22788;51.434;6.786;2024-03-08T06:35:20;21.17;;;13.83;;
36855;SDS011;22788;51.434;6.786;2024-03-08T06:37:47;20.90;;;14.43;;
36855;SDS011;22788;51.434;6.786;2024-03-08T06:40:13;23.10;;;13.67;;
36855;SDS011;22788;51.434;6.786;2024-03-08T06:42:39;22.30;;;14.07;;
36855;SDS011;22788;51.434;6.786;2024-03-08T06:45:05;23.13;;;14.30;;
36855;SDS011;22788;51.434;6.786;2024-03-08T06:47:31;22.83;;;13.87;;
36855;SDS011;22788;51.434;6.786;2024-03-08T06:49:56;18.83;;;13.07;;
36855;SDS011;22788;51.434;6.786;2024-03-08T06:52:22;21.40;;;14.07;;
36855;SDS011;22788;51.434;6.786;2024-03-08T06:54:49;21.13;;;13.77;;
36855;SDS011;22788;51.434;6.786;2024-03-08T06:57:15;21.00;;;13.87;;
36855;SDS011;22788;51.434;6.786;2024-03-08T06:59:40;19.60;;;14.40;;
36855;SDS011;22788;51.434;6.786;2024-03-08T07:02:06;22.47;;;14.03;;
36855;SDS011;22788;51.434;6.786;2024-03-08T07:04:31;21.33;;;14.37;;
36855;SDS011;22788;51.434;6.786;2024-03-08T07:06:57;21.67;;;14.53;;
36855;SDS011;22788;51.434;6.786;2024-03-08T07:09:23;19.90;;;13.13;;
36855;SDS011;22788;51.434;6.786;2024-03-08T07:11:50;20.10;;;14.20;;
36855;SDS011;22788;51.434;6.786;2024-03-08T07:14:16;19.27;;;13.27;;
36855;SDS011;22788;51.434;6.786;2024-03-08T07:16:41;20.57;;;13.97;;
36855;SDS011;22788;51.434;6.786;2024-03-08T07:19:07;19.37;;;13.43;;
36855;SDS011;22788;51.434;6.786;2024-03-08T07:21:32;20.00;;;13.63;;
36855;SDS011;22788;51.434;6.786;2024-03-08T07:23:58;19.87;;;14.43;;
36855;SDS011;22788;51.434;6.786;2024-03-08T07:26:24;23.43;;;14.27;;
36855;SDS011;22788;51.434;6.786;2024-03-08T07:28:50;20.90;;;14.07;;
36855;SDS011;22788;51.434;6.786;2024-03-08T07:31:16;22.13;;;14.27;;
36855;SDS011;22788;51.434;6.786;2024-03-08T07:33:42;21.40;;;14.90;;
36855;SDS011;22788;51.434;6.786;2024-03-08T07:36:07;23.03;;;14.57;;
36855;SDS011;22788;51.434;6.786;2024-03-08T07:38:33;19.13;;;13.27;;
36855;SDS011;22788;51.434;6.786;2024-03-08T07:40:58;21.80;;;13.90;;
36855;SDS011;22788;51.434;6.786;2024-03-08T07:43:25;23.20;;;14.13;;
36855;SDS011;22788;51.434;6.786;2024-03-08T07:45:52;23.53;;;14.73;;
36855;SDS011;22788;51.434;6.786;2024-03-08T07:48:17;23.10;;;14.60;;
36855;SDS011;22788;51.434;6.786;2024-03-08T07:50:43;22.87;;;14.00;;
36855;SDS011;22788;51.434;6.786;2024-03-08T07:53:09;24.20;;;15.13;;
36855;SDS011;22788;51.434;6.786;2024-03-08T07:55:34;23.13;;;13.23;;
36855;SDS011;22788;51.434;6.786;2024-03-08T07:58:00;23.40;;;14.83;;
36855;SDS011;22788;51.434;6.786;2024-03-08T08:00:26;24.53;;;14.77;;
36855;SDS011;22788;51.434;6.786;2024-03-08T08:02:53;23.03;;;14.07;;
36855;SDS011;22788;51.434;6.786;2024-03-08T08:05:19;26.60;;;14.10;;
36855;SDS011;22788;51.434;6.786;2024-03-08T08:07:45;22.33;;;14.40;;
36855;SDS011;22788;51.434;6.786;2024-03-08T08:10:11;25.40;;;14.70;;
36855;SDS011;22788;51.434;6.786;2024-03-08T08:12:37;20.57;;;13.97;;
36855;SDS011;22788;51.434;6.786;2024-03-08T08:15:02;22.80;;;14.37;;
36855;SDS011;22788;51.434;6.786;2024-03-08T08:17:28;33.47;;;15.23;;
36855;SDS011;22788;51.434;6.786;2024-03-08T08:19:55;22.27;;;13.77;;
36855;SDS011;22788;51.434;6.786;2024-03-08T08:22:21;24.07;;;14.00;;
36855;SDS011;22788;51.434;6.786;2024-03-08T08:24:47;27.67;;;14.33;;
36855;SDS011;22788;51.434;6.786;2024-03-08T08:27:12;23.90;;;15.10;;
36855;SDS011;22788;51.434;6.786;2024-03-08T08:29:38;22.03;;;13.80;;
36855;SDS011;22788;51.434;6.786;2024-03-08T08:32:03;24.37;;;14.13;;
36855;SDS011;22788;51.434;6.786;2024-03-08T08:34:29;24.63;;;15.00;;
36855;SDS011;22788;51.434;6.786;2024-03-08T08:36:56;25.83;;;14.93;;
36855;SDS011;22788;51.434;6.786;2024-03-08T08:39:22;25.30;;;15.33;;
36855;SDS011;22788;51.434;6.786;2024-03-08T08:41:48;23.73;;;15.33;;
36855;SDS011;22788;51.434;6.786;2024-03-08T08:44:13;22.13;;;13.83;;
36855;SDS011;22788;51.434;6.786;2024-03-08T08:46:39;22.33;;;13.60;;
36855;SDS011;22788;51.434;6.786;2024-03-08T08:49:04;23.50;;;14.27;;
36855;SDS011;22788;51.434;6.786;2024-03-08T08:51:30;20.43;;;13.83;;
36855;SDS011;22788;51.434;6.786;2024-03-08T08:53:57;22.07;;;13.33;;
36855;SDS011;22788;51.434;6.786;2024-03-08T08:56:23;22.50;;;14.10;;
36855;SDS011;22788;51.434;6.786;2024-03-08T08:58:48;30.30;;;15.20;;
36855;SDS011;22788;51.434;6.786;2024-03-08T09:01:14;26.60;;;14.37;;
36855;SDS011;22788;51.434;6.786;2024-03-08T09:03:40;26.47;;;14.13;;
36855;SDS011;22788;51.434;6.786;2024-03-08T09:06:05;20.80;;;13.80;;
36855;SDS011;22788;51.434;6.786;2024-03-08T09:08:31;22.97;;;13.80;;
36855;SDS011;22788;51.434;6.786;2024-03-08T09:10:58;21.40;;;13.33;;
36855;SDS011;22788;51.434;6.786;2024-03-08T09:13:24;21.07;;;13.77;;
36855;SDS011;22788;51.434;6.786;2024-03-08T09:15:50;22.60;;;13.70;;
36855;SDS011;22788;51.434;6.786;2024-03-08T09:18:15;26.20;;;14.63;;
36855;SDS011;22788;51.434;6.786;2024-03-08T09:20:41;20.53;;;13.40;;
36855;SDS011;22788;51.434;6.786;2024-03-08T09:23:06;26.03;;;14.60;;
36855;SDS011;22788;51.434;6.786;2024-03-08T09:25:32;23.40;;;13.40;;
36855;SDS011;22788;51.434;6.786;2024-03-08T09:27:59;25.07;;;14.93;;
36855;SDS011;22788;51.434;6.786;2024-03-08T09:30:25;20.50;;;13.63;;
36855;SDS011;22788;51.434;6.786;2024-03-08T09:32:50;22.53;;;13.53;;
36855;SDS011;22788;51.434;6.786;2024-03-08T09:35:16;22.73;;;14.47;;
36855;SDS011;22788;51.434;6.786;2024-03-08T09:37:42;28.17;;;16.90;;
36855;SDS011;22788;51.434;6.786;2024-03-08T09:40:08;22.63;;;14.77;;
36855;SDS011;22788;51.434;6.786;2024-03-08T09:42:33;23.50;;;13.10;;
36855;SDS011;22788;51.434;6.786;2024-03-08T09:45:01;21.73;;;14.03;;
36855;SDS011;22788;51.434;6.786;2024-03-08T09:47:26;22.77;;;14.93;;
36855;SDS011;22788;51.434;6.786;2024-03-08T09:49:53;21.13;;;13.93;;
36855;SDS011;22788;51.434;6.786;2024-03-08T09:52:19;24.27;;;14.33;;
36855;SDS011;22788;51.434;6.786;2024-03-08T09:54:45;20.67;;;13.23;;
36855;SDS011;22788;51.434;6.786;2024-03-08T09:57:11;26.07;;;13.80;;
36855;SDS011;22788;51.434;6.786;2024-03-08T09:59:37;23.93;;;14.27;;
36855;SDS011;22788;51.434;6.786;2024-03-08T10:02:04;20.50;;;13.43;;
36855;SDS011;22788;51.434;6.786;2024-03-08T10:04:30;22.30;;;13.80;;
36855;SDS011;22788;51.434;6.786;2024-03-08T10:06:55;24.07;;;13.83;;
36855;SDS011;22788;51.434;6.786;2024-03-08T10:09:22;23.47;;;13.93;;
36855;SDS011;22788;51.434;6.786;2024-03-08T10:11:47;23.93;;;13.50;;
36855;SDS011;22788;51.434;6.786;2024-03-08T10:14:13;22.20;;;13.87;;
36855;SDS011;22788;51.434;6.786;2024-03-08T10:16:40;22.03;;;13.83;;
36855;SDS011;22788;51.434;6.786;2024-03-08T10:19:07;21.47;;;14.47;;
36855;SDS011;22788;51.434;6.786;2024-03-08T10:21:32;24.60;;;14.27;;
36855;SDS011;22788;51.434;6.786;2024-03-08T10:23:58;22.57;;;13.83;;
36855;SDS011;22788;51.434;6.786;2024-03-08T10:26:24;19.77;;;12.47;;
36855;SDS011;22788;51.434;6.786;2024-03-08T10:28:50;22.70;;;13.90;;
36855;SDS011;22788;51.434;6.786;2024-03-08T10:31:17;19.93;;;14.67;;
36855;SDS011;22788;51.434;6.786;2024-03-08T10:33:43;23.53;;;13.37;;
36855;SDS011;22788;51.434;6.786;2024-03-08T10:36:10;18.97;;;12.43;;
36855;SDS011;22788;51.434;6.786;2024-03-08T10:38:36;21.03;;;13.27;;
36855;SDS011;22788;51.434;6.786;2024-03-08T10:41:03;22.50;;;13.33;;
36855;SDS011;22788;51.434;6.786;2024-03-08T10:43:31;20.67;;;13.13;;
36855;SDS011;22788;51.434;6.786;2024-03-08T10:46:08;19.90;;;13.33;;
36855;SDS011;22788;51.434;6.786;2024-03-08T10:48:45;24.70;;;13.20;;
36855;SDS011;22788;51.434;6.786;2024-03-08T10:51:13;21.53;;;13.57;;
36855;SDS011;22788;51.434;6.786;2024-03-08T10:53:40;21.80;;;14.00;;
36855;SDS011;22788;51.434;6.786;2024-03-08T10:56:07;20.17;;;13.30;;
36855;SDS011;22788;51.434;6.786;2024-03-08T10:58:32;19.83;;;12.87;;
36855;SDS011;22788;51.434;6.786;2024-03-08T11:01:00;22.77;;;12.67;;
36855;SDS011;22788;51.434;6.786;2024-03-08T11:06:14;18.27;;;11.90;;
36855;SDS011;22788;51.434;6.786;2024-03-08T11:08:41;19.27;;;13.17;;
36855;SDS011;22788;51.434;6.786;2024-03-08T11:11:11;24.23;;;13.73;;
36855;SDS011;22788;51.434;6.786;2024-03-08T11:13:48;17.83;;;11.43;;
36855;SDS011;22788;51.434;6.786;2024-03-08T11:19:05;19.70;;;13.00;;
36855;SDS011;22788;51.434;6.786;2024-03-08T11:21:33;20.40;;;12.37;;
36855;SDS011;22788;51.434;6.786;2024-03-08T11:23:59;22.43;;;12.77;;
36855;SDS011;22788;51.434;6.786;2024-03-08T11:26:24;17.30;;;11.50;;
36855;SDS011;22788;51.434;6.786;2024-03-08T11:28:50;19.47;;;12.00;;
36855;SDS011;22788;51.434;6.786;2024-03-08T11:31:23;22.07;;;13.07;;
36855;SDS011;22788;51.434;6.786;2024-03-08T11:33:58;20.23;;;12.17;;
36855;SDS011;22788;51.434;6.786;2024-03-08T11:36:23;19.70;;;11.37;;
36855;SDS011;22788;51.434;6.786;2024-03-08T11:38:51;18.80;;;13.20;;
36855;SDS011;22788;51.434;6.786;2024-03-08T11:41:18;20.00;;;12.73;;
36855;SDS011;22788;51.434;6.786;2024-03-08T11:43:44;20.27;;;11.97;;
36855;SDS011;22788;51.434;6.786;2024-03-08T11:46:10;17.87;;;12.20;;
36855;SDS011;22788;51.434;6.786;2024-03-08T11:48:36;17.50;;;11.57;;
36855;SDS011;22788;51.434;6.786;2024-03-08T11:51:02;21.17;;;13.00;;
36855;SDS011;22788;51.434;6.786;2024-03-08T11:53:28;22.27;;;13.90;;
36855;SDS011;22788;51.434;6.786;2024-03-08T11:55:55;20.60;;;13.03;;
36855;SDS011;22788;51.434;6.786;2024-03-08T11:58:31;24.90;;;14.70;;
36855;SDS011;22788;51.434;6.786;2024-03-08T12:01:02;22.63;;;13.87;;
36855;SDS011;22788;51.434;6.786;2024-03-08T12:03:28;22.37;;;14.23;;
36855;SDS011;22788;51.434;6.786;2024-03-08T12:05:56;24.93;;;14.27;;
36855;SDS011;22788;51.434;6.786;2024-03-08T12:08:22;20.27;;;13.40;;
36855;SDS011;22788;51.434;6.786;2024-03-08T12:10:47;21.87;;;13.87;;
36855;SDS011;22788;51.434;6.786;2024-03-08T12:13:14;20.30;;;14.17;;
36855;SDS011;22788;51.434;6.786;2024-03-08T12:15:41;20.70;;;12.57;;
36855;SDS011;22788;51.434;6.786;2024-03-08T12:18:07;23.67;;;14.23;;
36855;SDS011;22788;51.434;6.786;2024-03-08T12:20:33;21.57;;;13.43;;
36855;SDS011;22788;51.434;6.786;2024-03-08T12:22:58;20.07;;;13.77;;
36855;SDS011;22788;51.434;6.786;2024-03-08T12:25:27;21.50;;;13.37;;
36855;SDS011;22788;51.434;6.786;2024-03-08T12:27:55;20.63;;;13.57;;
36855;SDS011;22788;51.434;6.786;2024-03-08T12:30:23;22.53;;;13.30;;
36855;SDS011;22788;51.434;6.786;2024-03-08T12:32:55;19.87;;;14.03;;
36855;SDS011;22788;51.434;6.786;2024-03-08T12:35:22;23.23;;;14.10;;
36855;SDS011;22788;51.434;6.786;2024-03-08T12:37:49;19.73;;;12.97;;
36855;SDS011;22788;51.434;6.786;2024-03-08T12:40:15;24.07;;;14.63;;
36855;SDS011;22788;51.434;6.786;2024-03-08T12:42:41;25.70;;;14.33;;
36855;SDS011;22788;51.434;6.786;2024-03-08T12:45:07;24.70;;;14.60;;
36855;SDS011;22788;51.434;6.786;2024-03-08T12:47:34;23.70;;;14.23;;
36855;SDS011;22788;51.434;6.786;2024-03-08T12:50:00;21.47;;;14.13;;
36855;SDS011;22788;51.434;6.786;2024-03-08T12:52:26;23.93;;;14.57;;
36855;SDS011;22788;51.434;6.786;2024-03-08T12:54:51;22.60;;;13.77;;
36855;SDS011;22788;51.434;6.786;2024-03-08T12:57:17;21.03;;;14.33;;
36855;SDS011;22788;51.434;6.786;2024-03-08T12:59:42;22.17;;;13.90;;
36855;SDS011;22788;51.434;6.786;2024-03-08T13:02:08;21.40;;;13.33;;
36855;SDS011;22788;51.434;6.786;2024-03-08T13:04:35;21.37;;;13.23;;
36855;SDS011;22788;51.434;6.786;2024-03-08T13:07:00;21.70;;;13.63;;
36855;SDS011;22788;51.434;6.786;2024-03-08T13:09:26;20.20;;;12.90;;
36855;SDS011;22788;51.434;6.786;2024-03-08T13:11:52;20.20;;;13.57;;
36855;SDS011;22788;51.434;6.786;2024-03-08T13:14:17;20.10;;;12.40;;
36855;SDS011;22788;51.434;6.786;2024-03-08T13:16:43;17.87;;;11.47;;
36855;SDS011;22788;51.434;6.786;2024-03-08T13:19:08;24.90;;;13.30;;
36855;SDS011;22788;51.434;6.786;2024-03-08T13:21:35;17.13;;;11.17;;
36855;SDS011;22788;51.434;6.786;2024-03-08T13:24:01;14.67;;;9.67;;
36855;SDS011;22788;51.434;6.786;2024-03-08T13:26:26;14.07;;;10.27;;
36855;SDS011;22788;51.434;6.786;2024-03-08T13:28:52;14.23;;;9.63;;
36855;SDS011;22788;51.434;6.786;2024-03-08T13:31:18;16.67;;;11.07;;
36855;SDS011;22788;51.434;6.786;2024-03-08T13:33:44;18.57;;;10.70;;
36855;SDS011;22788;51.434;6.786;2024-03-08T13:36:10;17.00;;;10.17;;
36855;SDS011;22788;51.434;6.786;2024-03-08T13:38:37;16.57;;;10.47;;
36855;SDS011;22788;51.434;6.786;2024-03-08T13:41:03;14.73;;;9.60;;
36855;SDS011;22788;51.434;6.786;2024-03-08T13:43:28;13.53;;;9.57;;
36855;SDS011;22788;51.434;6.786;2024-03-08T13:45:54;14.90;;;8.63;;
36855;SDS011;22788;51.434;6.786;2024-03-08T13:48:20;12.53;;;7.60;;
36855;SDS011;22788;51.434;6.786;2024-03-08T13:50:45;12.77;;;8.60;;
36855;SDS011;22788;51.434;6.786;2024-03-08T13:53:11;12.57;;;8.33;;
36855;SDS011;22788;51.434;6.786;2024-03-08T13:55:38;14.23;;;8.73;;
36855;SDS011;22788;51.434;6.786;2024-03-08T13:58:03;10.53;;;7.03;;
36855;SDS011;22788;51.434;6.786;2024-03-08T14:00:29;12.47;;;7.73;;
36855;SDS011;22788;51.434;6.786;2024-03-08T14:02:55;11.73;;;7.80;;
36855;SDS011;22788;51.434;6.786;2024-03-08T14:05:20;10.57;;;7.23;;
36855;SDS011;22788;51.434;6.786;2024-03-08T14:07:46;11.83;;;7.33;;
36855;SDS011;22788;51.434;6.786;2024-03-08T14:10:11;13.77;;;7.87;;
36855;SDS011;22788;51.434;6.786;2024-03-08T14:12:38;10.63;;;6.93;;
36855;SDS011;22788;51.434;6.786;2024-03-08T14:15:04;9.60;;;6.90;;
36855;SDS011;22788;51.434;6.786;2024-03-08T14:17:30;10.67;;;7.47;;
36855;SDS011;22788;51.434;6.786;2024-03-08T14:19:56;11.10;;;7.13;;
36855;SDS011;22788;51.434;6.786;2024-03-08T14:22:21;8.13;;;6.57;;
36855;SDS011;22788;51.434;6.786;2024-03-08T14:24:47;10.10;;;6.47;;